createdAt,value
2023-04-27T00:04:30.470Z,96.70
2023-04-27T00:14:34.363Z,96.60
2023-04-27T00:24:39.465Z,96.30
2023-04-27T00:34:43.048Z,97.00
2023-04-27T00:44:48.225Z,95.90
2023-04-27T00:54:53.248Z,95.70
2023-04-27T01:04:58.682Z,96.10
2023-04-27T01:15:02.286Z,96.30
2023-04-27T01:25:08.868Z,96.20
2023-04-27T01:35:12.579Z,96.90
2023-04-27T01:45:17.794Z,97.10
2023-04-27T01:55:21.708Z,98.20
2023-04-27T02:05:26.905Z,97.00
2023-04-27T02:15:30.996Z,97.90
2023-04-27T02:25:37.810Z,98.40
2023-04-27T02:35:41.405Z,98.90
2023-04-27T02:45:46.436Z,99.20
2023-04-27T02:55:50.759Z,98.50
2023-04-27T03:05:55.934Z,98.40
2023-04-27T03:15:59.578Z,98.60
2023-04-27T03:26:07.714Z,98.50
2023-04-27T03:36:11.701Z,99.10
2023-04-27T03:46:16.721Z,98.90
2023-04-27T03:56:20.684Z,99.40
2023-04-27T04:06:26.029Z,99.40
2023-04-27T04:16:29.716Z,99.70
2023-04-27T04:26:35.446Z,99.90
2023-04-27T04:36:39.045Z,99.90
2023-04-27T04:46:44.136Z,99.90
2023-04-27T04:56:47.728Z,99.90
2023-04-27T05:06:53.089Z,99.90
2023-04-27T05:16:56.742Z,99.90
2023-04-27T05:27:02.569Z,99.90
2023-04-27T05:37:06.365Z,99.90
2023-04-27T05:47:11.441Z,99.90
2023-04-27T05:57:15.366Z,99.90
2023-04-27T06:07:20.422Z,99.90
2023-04-27T06:17:24.318Z,99.60
2023-04-27T06:27:29.257Z,98.30
2023-04-27T06:37:32.961Z,97.50
2023-04-27T06:47:37.954Z,97.10
2023-04-27T06:57:41.687Z,96.80
2023-04-27T07:07:46.638Z,93.90
2023-04-27T07:17:50.314Z,90.90
2023-04-27T07:27:56.933Z,90.10
2023-04-27T07:38:02.732Z,88.90
2023-04-27T07:48:08.237Z,88.20
2023-04-27T07:58:12.081Z,85.00
2023-04-27T08:08:18.016Z,81.20
2023-04-27T08:18:21.722Z,80.30
2023-04-27T08:28:26.797Z,82.70
2023-04-27T08:38:30.521Z,80.20
2023-04-27T08:48:35.509Z,82.80
2023-04-27T08:58:39.755Z,81.30
2023-04-27T09:08:46.953Z,76.00
2023-04-27T09:18:50.629Z,72.30
2023-04-27T09:28:57.788Z,70.30
2023-04-27T09:39:05.309Z,67.30
2023-04-27T09:49:11.629Z,66.30
2023-04-27T09:59:37.264Z,66.90
2023-04-27T10:09:46.613Z,61.20
2023-04-27T10:19:59.095Z,63.20
2023-04-27T10:30:11.708Z,60.70
2023-04-27T10:40:17.539Z,57.70
2023-04-27T10:50:24.724Z,58.10
2023-04-27T11:00:30.796Z,54.50
2023-04-27T11:10:36.989Z,54.20
2023-04-27T11:20:40.780Z,54.60
2023-04-27T11:30:45.858Z,51.30
2023-04-27T11:41:01.111Z,51.70
2023-04-27T11:51:06.888Z,50.20
2023-04-27T12:01:11.971Z,51.00
2023-04-27T12:11:16.961Z,50.80
2023-04-27T12:21:21.271Z,48.70
2023-04-27T12:31:27.829Z,47.60
2023-04-27T12:41:31.586Z,46.40
2023-04-27T12:51:37.339Z,48.90
2023-04-27T13:01:41.176Z,48.60
2023-04-27T13:11:46.359Z,49.60
2023-04-27T13:21:50.257Z,46.10
2023-04-27T13:31:55.905Z,44.60
2023-04-27T13:41:59.738Z,47.60
2023-04-27T13:52:04.869Z,47.30
2023-04-27T14:02:09.342Z,50.00
2023-04-27T14:12:14.509Z,53.10
2023-04-27T14:22:18.193Z,48.30
2023-04-27T14:32:23.453Z,49.60
2023-04-27T14:42:27.156Z,47.90
2023-04-27T14:52:32.115Z,47.60
2023-04-27T15:02:35.847Z,46.90
2023-04-27T15:12:40.890Z,47.80
2023-04-27T15:22:44.523Z,45.70
2023-04-27T15:32:49.837Z,47.10
2023-04-27T15:42:53.524Z,45.30
2023-04-27T15:52:58.476Z,43.60
2023-04-27T16:03:02.410Z,43.00
2023-04-27T16:13:07.561Z,42.90
2023-04-27T16:23:11.223Z,42.00
2023-04-27T16:33:18.360Z,43.00
2023-04-27T16:43:23.736Z,42.40
2023-04-27T16:53:29.015Z,43.60
2023-04-27T17:03:36.083Z,44.00
2023-04-27T17:13:41.333Z,45.70
2023-04-27T17:23:46.523Z,44.80
2023-04-27T17:33:51.506Z,46.60
2023-04-27T17:43:55.183Z,47.40
2023-04-27T17:54:00.229Z,47.70
2023-04-27T18:04:05.665Z,48.30
2023-04-27T18:14:11.318Z,49.50
2023-04-27T18:24:15.044Z,55.80
2023-04-27T18:34:20.157Z,64.00
2023-04-27T18:44:23.947Z,63.40
2023-04-27T18:54:28.989Z,61.10
2023-04-27T19:04:34.232Z,62.40
2023-04-27T19:14:39.591Z,68.30
2023-04-27T19:24:43.711Z,82.70
2023-04-27T19:34:55.763Z,85.10
2023-04-27T19:45:00.820Z,87.00
2023-04-27T19:55:07.184Z,90.70
2023-04-27T20:05:11.434Z,92.10
2023-04-27T20:15:16.683Z,93.80
2023-04-27T20:25:20.824Z,85.40
2023-04-27T20:35:27.694Z,82.70
2023-04-27T20:45:31.979Z,84.10
2023-04-27T20:55:37.103Z,83.80
2023-04-27T21:05:41.438Z,85.40
2023-04-27T21:15:46.553Z,89.90
2023-04-27T21:25:50.172Z,90.10
2023-04-27T21:35:55.158Z,91.40
2023-04-27T21:46:01.971Z,90.70
2023-04-27T21:56:08.429Z,91.20
2023-04-27T22:06:12.461Z,92.70
2023-04-27T22:16:17.901Z,92.20
2023-04-27T22:26:21.541Z,91.40
2023-04-27T22:36:26.573Z,92.20
2023-04-27T22:46:30.449Z,91.10
2023-04-27T22:56:35.543Z,91.80
2023-04-27T23:06:39.174Z,91.20
2023-04-27T23:16:44.607Z,91.90
2023-04-27T23:26:48.363Z,92.90
2023-04-27T23:36:53.407Z,92.20
2023-04-27T23:47:00.192Z,93.30
2023-04-27T23:57:06.484Z,93.30
